Darstellungsparameter: Aktuell verwendete Einstellungen:
Skalierung der Graphiken ... ?
xyx+y,   Skalierungsfaktor:      Skalierung: Modus: x, Faktor: 1
Darstellungszeitraum ... ?
Vom - - bis: - -   Zeitraum: 15.12.2011 - 15.12.2011
Min/Max/Avg-Anzeige ... ?
Zeige MMA aktuell
Zeige MMA Monat
Zeige MMA alles
Zeige --A aktuell
Zeige --A Monat
Zeige --A alles
Keine MMA-Anzeige
MMA:
Average (ber die Originaldaten)
MMA-Basis: 15.12.2011 - 15.12.2011
Quicknavigation für Darstellung... ?
Tage:      1T, 2T, 3T, 5T -1T -2T -3T -5T +1T +2T +3T +5T
Wochen: 1W, 2W, 3W -1W -2W -3W +1W +2W +3W
Monate: 1M, 3M, 6M -1M -3M -6M +1M +3M +6M
Jahre:    1J, 3J, 5J, 10J -1J -3J -5J -10J +1J +3J +5J +10J
Nutze für die Darstellung ... ?
Originaldaten oder Mittelwerte auf ...
Stundenbasis Tagesbasis Wochenbasis
Monatsbasis Jahresbasis      Datenbasis: Original-Daten
Darstellen als:
Statistik (Auto) Statistik J:M      Darstellung:
Zur Graphik,    zurück zur Übersicht aller Sensoren.
 
Tabellarische Datenbersicht: ?
 
Sensor: Nr:Datum:Temp:Abs-Feuchte:Windchill:Wind:
Aussen-T/F 1 15-12-2011 00:00:00 6.1 C 5.63 g/m*3 3.72 C 11.3 km/h
2 15-12-2011 00:05:00 6.1 C 5.55 g/m*3 3.72 C 11.3 km/h
3 15-12-2011 00:10:00 6.2 C 5.44 g/m*3 3.56 C 12.9 km/h
4 15-12-2011 00:15:00 6.4 C 5.44 g/m*3 3.32 C 16.1 km/h
5 15-12-2011 00:20:00 6.4 C 5.36 g/m*3 3.55 C 14.5 km/h
6 15-12-2011 00:25:00 6.4 C 5.36 g/m*3 3.32 C 16.1 km/h
7 15-12-2011 00:30:00 6.4 C 5.29 g/m*3 3.11 C 17.7 km/h
8 15-12-2011 00:35:00 6.4 C 5.29 g/m*3 3.11 C 17.7 km/h
9 15-12-2011 00:40:00 6.4 C 5.29 g/m*3 3.55 C 14.5 km/h
10 15-12-2011 00:45:00 6.4 C 5.29 g/m*3 3.11 C 17.7 km/h
11 15-12-2011 00:50:00 6.3 C 5.33 g/m*3 4.27 C 9.7 km/h
12 15-12-2011 00:55:00 6.2 C 5.29 g/m*3 3.07 C 16.1 km/h
13 15-12-2011 01:00:00 6.2 C 5.37 g/m*3 4.52 C 8.1 km/h
14 15-12-2011 01:05:00 6.1 C 5.33 g/m*3 3.72 C 11.3 km/h
15 15-12-2011 01:10:00 6 C 5.37 g/m*3 4.75 C 6.4 km/h
16 15-12-2011 01:15:00 6 C 5.37 g/m*3 3.6 C 11.3 km/h
17 15-12-2011 01:20:00 5.8 C 5.37 g/m*3 5.8 C 4.8 km/h
18 15-12-2011 01:25:00 5.7 C 5.41 g/m*3 4.4 C 6.4 km/h
19 15-12-2011 01:30:00 5.6 C 5.51 g/m*3 5.6 C 4.8 km/h
20 15-12-2011 01:35:00 5.6 C 5.44 g/m*3 3.11 C 11.3 km/h
21 15-12-2011 01:40:00 5.6 C 5.44 g/m*3 5.6 C 3.2 km/h
22 15-12-2011 01:45:00 5.7 C 5.48 g/m*3 2.45 C 16.1 km/h
23 15-12-2011 01:50:00 5.9 C 5.41 g/m*3 2.93 C 14.5 km/h
24 15-12-2011 01:55:00 6.1 C 5.48 g/m*3 3.18 C 14.5 km/h
25 15-12-2011 02:00:00 6.2 C 5.44 g/m*3 3.3 C 14.5 km/h
Sensor: Nr:Datum:Temp:Abs-Feuchte:Windchill:Wind:
Aussen-T/F 26 15-12-2011 02:05:00 6.2 C 5.44 g/m*3 3.56 C 12.9 km/h
27 15-12-2011 02:10:00 6.3 C 5.48 g/m*3 4.64 C 8.1 km/h
28 15-12-2011 02:15:00 6.1 C 5.48 g/m*3 4.86 C 6.4 km/h
29 15-12-2011 02:20:00 5.9 C 5.48 g/m*3 5.9 C 4.8 km/h
30 15-12-2011 02:25:00 5.8 C 5.37 g/m*3 3.36 C 11.3 km/h
31 15-12-2011 02:30:00 5.8 C 5.37 g/m*3 5.8 C 4.8 km/h
32 15-12-2011 02:35:00 5.8 C 5.37 g/m*3 5.8 C 4.8 km/h
33 15-12-2011 02:40:00 5.9 C 5.62 g/m*3 5.9 C 4.8 km/h
34 15-12-2011 02:45:00 5.8 C 5.59 g/m*3 5.8 C 4.8 km/h
35 15-12-2011 02:50:00 5.9 C 5.41 g/m*3 2.93 C 14.5 km/h
36 15-12-2011 02:55:00 5.9 C 5.41 g/m*3 4.63 C 6.4 km/h
37 15-12-2011 03:00:00 5.9 C 5.41 g/m*3 4.63 C 6.4 km/h
38 15-12-2011 03:05:00 5.8 C 5.52 g/m*3 5.8 C 4.8 km/h
39 15-12-2011 03:10:00 5.7 C 5.41 g/m*3 3.93 C 8.1 km/h
40 15-12-2011 03:15:00 5.9 C 5.48 g/m*3 3.8 C 9.7 km/h
41 15-12-2011 03:20:00 5.9 C 5.55 g/m*3 5.9 C 4.8 km/h
42 15-12-2011 03:25:00 5.8 C 5.59 g/m*3 4.52 C 6.4 km/h
43 15-12-2011 03:30:00 5.7 C 5.62 g/m*3 5.7 C 3.2 km/h
44 15-12-2011 03:35:00 5.6 C 5.59 g/m*3 4.29 C 6.4 km/h
45 15-12-2011 03:40:00 5.7 C 5.62 g/m*3 4.4 C 6.4 km/h
46 15-12-2011 03:45:00 5.8 C 5.73 g/m*3 4.05 C 8.1 km/h
47 15-12-2011 03:50:00 5.9 C 5.77 g/m*3 2.93 C 14.5 km/h
48 15-12-2011 03:55:00 5.8 C 5.8 g/m*3 5.8 C 4.8 km/h
49 15-12-2011 04:00:00 5.6 C 5.87 g/m*3 4.29 C 6.4 km/h
50 15-12-2011 04:05:00 5.4 C 5.79 g/m*3 2.58 C 12.9 km/h
Sensor: Nr:Datum:Temp:Abs-Feuchte:Windchill:Wind:
Aussen-T/F 51 15-12-2011 04:10:00 5.1 C 5.81 g/m*3 5.1 C 4.8 km/h
52 15-12-2011 04:15:00 4.9 C 5.74 g/m*3 4.9 C 3.2 km/h
53 15-12-2011 04:20:00 4.7 C 5.73 g/m*3 3.25 C 6.4 km/h
54 15-12-2011 04:25:00 4.6 C 5.69 g/m*3 3.13 C 6.4 km/h
55 15-12-2011 04:30:00 4.4 C 5.62 g/m*3 4.4 C 4.8 km/h
56 15-12-2011 04:35:00 4.3 C 5.64 g/m*3 2.29 C 8.1 km/h
57 15-12-2011 04:40:00 4.1 C 5.63 g/m*3 4.1 C 3.2 km/h
58 15-12-2011 04:45:00 4 C 5.66 g/m*3 4 C 4.8 km/h
59 15-12-2011 04:50:00 4 C 5.66 g/m*3 4 C 4.8 km/h
60 15-12-2011 04:55:00 4.1 C 5.7 g/m*3 4.1 C 3.2 km/h
61 15-12-2011 05:00:00 4.1 C 5.7 g/m*3 4.1 C 4.8 km/h
62 15-12-2011 05:05:00 4.2 C 5.73 g/m*3 4.2 C 4.8 km/h
63 15-12-2011 05:10:00 4.1 C 5.7 g/m*3 4.1 C 4.8 km/h
64 15-12-2011 05:15:00 4.3 C 5.71 g/m*3 2.29 C 8.1 km/h
65 15-12-2011 05:20:00 4.6 C 5.76 g/m*3 3.13 C 6.4 km/h
66 15-12-2011 05:25:00 4.6 C 5.76 g/m*3 4.6 C 3.2 km/h
67 15-12-2011 05:30:00 4.5 C 5.72 g/m*3 2.52 C 8.1 km/h
68 15-12-2011 05:35:00 4.5 C 5.72 g/m*3 2.52 C 8.1 km/h
69 15-12-2011 05:40:00 4.5 C 5.65 g/m*3 4.5 C 4.8 km/h
70 15-12-2011 05:45:00 4.5 C 5.65 g/m*3 2.52 C 8.1 km/h
71 15-12-2011 05:50:00 4.7 C 5.73 g/m*3 2.37 C 9.7 km/h
72 15-12-2011 05:55:00 4.8 C 5.77 g/m*3 1.85 C 12.9 km/h
73 15-12-2011 06:00:00 4.9 C 5.74 g/m*3 2.27 C 11.3 km/h
74 15-12-2011 06:05:00 4.9 C 5.67 g/m*3 2.99 C 8.1 km/h
75 15-12-2011 06:10:00 5.1 C 5.75 g/m*3 3.71 C 6.4 km/h
Sensor: Nr:Datum:Temp:Abs-Feuchte:Windchill:Wind:
Aussen-T/F 76 15-12-2011 06:15:00 5.1 C 5.81 g/m*3 1.71 C 16.1 km/h
77 15-12-2011 06:20:00 5.1 C 5.75 g/m*3 2.84 C 9.7 km/h
78 15-12-2011 06:25:00 5.1 C 5.75 g/m*3 1.49 C 17.7 km/h
79 15-12-2011 06:30:00 5 C 5.71 g/m*3 3.11 C 8.1 km/h
80 15-12-2011 06:35:00 4.9 C 5.67 g/m*3 2.61 C 9.7 km/h
81 15-12-2011 06:40:00 4.8 C 5.63 g/m*3 2.49 C 9.7 km/h
82 15-12-2011 06:45:00 4.9 C 5.67 g/m*3 2.27 C 11.3 km/h
83 15-12-2011 06:50:00 4.9 C 5.67 g/m*3 1.97 C 12.9 km/h
84 15-12-2011 06:55:00 5 C 5.64 g/m*3 2.39 C 11.3 km/h
85 15-12-2011 07:00:00 4.9 C 5.67 g/m*3 2.99 C 8.1 km/h
86 15-12-2011 07:05:00 4.9 C 5.74 g/m*3 4.9 C 4.8 km/h
87 15-12-2011 07:10:00 4.8 C 5.83 g/m*3 4.8 C 4.8 km/h
88 15-12-2011 07:15:00 4.7 C 5.8 g/m*3 3.25 C 6.4 km/h
89 15-12-2011 07:20:00 4.6 C 5.76 g/m*3 4.6 C 4.8 km/h
90 15-12-2011 07:25:00 4.5 C 5.78 g/m*3 4.5 C 4.8 km/h
91 15-12-2011 07:30:00 4.4 C 5.75 g/m*3 4.4 C 4.8 km/h
92 15-12-2011 07:35:00 4.3 C 5.64 g/m*3 1.55 C 11.3 km/h
93 15-12-2011 07:40:00 4.6 C 5.69 g/m*3 2.64 C 8.1 km/h
94 15-12-2011 07:45:00 4.8 C 5.7 g/m*3 3.36 C 6.4 km/h
95 15-12-2011 07:50:00 4.8 C 5.63 g/m*3 4.8 C 4.8 km/h
96 15-12-2011 07:55:00 4.8 C 5.63 g/m*3 4.8 C 3.2 km/h
97 15-12-2011 08:00:00 4.9 C 5.6 g/m*3 4.9 C 4.8 km/h
98 15-12-2011 08:05:00 4.9 C 5.6 g/m*3 2.99 C 8.1 km/h
99 15-12-2011 08:10:00 5.1 C 5.61 g/m*3 2.51 C 11.3 km/h
100 15-12-2011 08:15:00 5.3 C 5.61 g/m*3 2.75 C 11.3 km/h
Sensor: Nr:Datum:Temp:Abs-Feuchte:Windchill:Wind:
Aussen-T/F 101 15-12-2011 08:20:00 5.3 C 5.54 g/m*3 3.94 C 6.4 km/h
102 15-12-2011 08:25:00 5.3 C 5.61 g/m*3 5.3 C 4.8 km/h
103 15-12-2011 08:30:00 5.2 C 5.65 g/m*3 5.2 C 4.8 km/h
104 15-12-2011 08:35:00 5.2 C 5.71 g/m*3 5.2 C 4.8 km/h
105 15-12-2011 08:40:00 5.1 C 5.75 g/m*3 5.1 C 3.2 km/h
106 15-12-2011 08:45:00 5.1 C 5.68 g/m*3 2.22 C 12.9 km/h
107 15-12-2011 08:50:00 5.1 C 5.75 g/m*3 5.1 C 4.8 km/h
108 15-12-2011 08:55:00 5.1 C 5.68 g/m*3 3.71 C 6.4 km/h
109 15-12-2011 09:00:00 5.2 C 5.71 g/m*3 2.96 C 9.7 km/h
110 15-12-2011 09:05:00 5.3 C 5.68 g/m*3 3.94 C 6.4 km/h
111 15-12-2011 09:10:00 5.4 C 5.65 g/m*3 2.87 C 11.3 km/h
112 15-12-2011 09:15:00 5.6 C 5.66 g/m*3 3.81 C 8.1 km/h
113 15-12-2011 09:20:00 5.6 C 5.73 g/m*3 5.6 C 4.8 km/h
114 15-12-2011 09:25:00 5.8 C 5.66 g/m*3 2.58 C 16.1 km/h
115 15-12-2011 09:30:00 5.9 C 5.7 g/m*3 4.63 C 6.4 km/h
116 15-12-2011 09:35:00 5.9 C 5.77 g/m*3 4.17 C 8.1 km/h
117 15-12-2011 09:40:00 6 C 5.73 g/m*3 4.75 C 6.4 km/h
118 15-12-2011 09:45:00 6.1 C 5.7 g/m*3 4.86 C 6.4 km/h
119 15-12-2011 09:50:00 6.3 C 5.7 g/m*3 3.68 C 12.9 km/h
120 15-12-2011 09:55:00 6.3 C 5.63 g/m*3 4.27 C 9.7 km/h
121 15-12-2011 10:00:00 6.4 C 5.66 g/m*3 5.21 C 6.4 km/h
122 15-12-2011 10:05:00 6.4 C 5.74 g/m*3 6.4 C 4.8 km/h
123 15-12-2011 10:10:00 6.4 C 5.74 g/m*3 5.21 C 6.4 km/h
124 15-12-2011 10:15:00 6.4 C 5.66 g/m*3 6.4 C 4.8 km/h
125 15-12-2011 10:20:00 6.4 C 5.74 g/m*3 4.08 C 11.3 km/h
Sensor: Nr:Datum:Temp:Abs-Feuchte:Windchill:Wind:
Aussen-T/F 126 15-12-2011 10:25:00 6.5 C 5.7 g/m*3 4.87 C 8.1 km/h
127 15-12-2011 10:30:00 6.6 C 5.66 g/m*3 4.63 C 9.7 km/h
128 15-12-2011 10:35:00 6.6 C 5.59 g/m*3 3.57 C 16.1 km/h
129 15-12-2011 10:40:00 6.7 C 5.62 g/m*3 3.48 C 17.7 km/h
130 15-12-2011 10:45:00 6.7 C 5.7 g/m*3 5.56 C 6.4 km/h
131 15-12-2011 10:50:00 6.7 C 5.62 g/m*3 3.92 C 14.5 km/h
132 15-12-2011 10:55:00 6.7 C 5.62 g/m*3 4.75 C 9.7 km/h
133 15-12-2011 11:00:00 6.7 C 5.55 g/m*3 5.11 C 8.1 km/h
134 15-12-2011 11:05:00 6.7 C 5.55 g/m*3 4.44 C 11.3 km/h
135 15-12-2011 11:10:00 6.8 C 5.58 g/m*3 5.67 C 6.4 km/h
136 15-12-2011 11:15:00 6.9 C 5.54 g/m*3 5.34 C 8.1 km/h
137 15-12-2011 11:20:00 6.9 C 5.54 g/m*3 5.79 C 6.4 km/h
138 15-12-2011 11:25:00 7.1 C 5.54 g/m*3 5.58 C 8.1 km/h
139 15-12-2011 11:30:00 7.1 C 5.54 g/m*3 5.23 C 9.7 km/h
140 15-12-2011 11:35:00 7.1 C 5.62 g/m*3 7.1 C 4.8 km/h
141 15-12-2011 11:40:00 7.1 C 5.62 g/m*3 5.23 C 9.7 km/h
142 15-12-2011 11:45:00 7 C 5.73 g/m*3 5.46 C 8.1 km/h
143 15-12-2011 11:50:00 6.9 C 5.7 g/m*3 6.9 C 4.8 km/h
144 15-12-2011 11:55:00 6.9 C 5.77 g/m*3 6.9 C 3.2 km/h
145 15-12-2011 12:00:00 6.9 C 5.7 g/m*3 5.79 C 6.4 km/h
146 15-12-2011 12:05:00 7 C 5.58 g/m*3 5.46 C 8.1 km/h
147 15-12-2011 12:10:00 7.1 C 5.69 g/m*3 5.58 C 8.1 km/h
148 15-12-2011 12:15:00 7.1 C 5.62 g/m*3 4.92 C 11.3 km/h
149 15-12-2011 12:20:00 7.1 C 5.62 g/m*3 5.58 C 8.1 km/h
150 15-12-2011 12:25:00 7.2 C 5.73 g/m*3 5.69 C 8.1 km/h
Sensor: Nr:Datum:Temp:Abs-Feuchte:Windchill:Wind:
Aussen-T/F 151 15-12-2011 12:30:00 7.2 C 5.73 g/m*3 7.2 C 4.8 km/h
152 15-12-2011 12:35:00 7.3 C 5.61 g/m*3 5.81 C 8.1 km/h
153 15-12-2011 12:40:00 7.4 C 5.65 g/m*3 4.78 C 14.5 km/h
154 15-12-2011 12:45:00 7.4 C 5.65 g/m*3 5.58 C 9.7 km/h
155 15-12-2011 12:50:00 7.4 C 5.73 g/m*3 5.93 C 8.1 km/h
156 15-12-2011 12:55:00 7.4 C 5.73 g/m*3 5.02 C 12.9 km/h
157 15-12-2011 13:00:00 7.4 C 5.73 g/m*3 5.58 C 9.7 km/h
158 15-12-2011 13:05:00 7.4 C 5.73 g/m*3 5.58 C 9.7 km/h
159 15-12-2011 13:10:00 7.4 C 5.73 g/m*3 5.58 C 9.7 km/h
160 15-12-2011 13:15:00 7.4 C 5.65 g/m*3 4.78 C 14.5 km/h
161 15-12-2011 13:20:00 7.4 C 5.73 g/m*3 4.56 C 16.1 km/h
162 15-12-2011 13:25:00 7.3 C 5.61 g/m*3 4.9 C 12.9 km/h
163 15-12-2011 13:30:00 7.3 C 5.69 g/m*3 4.66 C 14.5 km/h
164 15-12-2011 13:35:00 7.3 C 5.69 g/m*3 5.47 C 9.7 km/h
165 15-12-2011 13:40:00 7.3 C 5.69 g/m*3 4.23 C 17.7 km/h
166 15-12-2011 13:45:00 7.3 C 5.77 g/m*3 5.47 C 9.7 km/h
167 15-12-2011 13:50:00 7.3 C 5.85 g/m*3 4.66 C 14.5 km/h
168 15-12-2011 13:55:00 7.3 C 5.93 g/m*3 5.16 C 11.3 km/h
169 15-12-2011 14:00:00 7.2 C 5.89 g/m*3 5.04 C 11.3 km/h
170 15-12-2011 14:05:00 7.2 C 5.89 g/m*3 4.77 C 12.9 km/h
171 15-12-2011 14:10:00 7.3 C 5.77 g/m*3 4.44 C 16.1 km/h
172 15-12-2011 14:15:00 7.3 C 5.69 g/m*3 4.23 C 17.7 km/h
173 15-12-2011 14:20:00 7.3 C 5.61 g/m*3 4.44 C 16.1 km/h
174 15-12-2011 14:25:00 7.4 C 5.73 g/m*3 5.58 C 9.7 km/h
175 15-12-2011 14:30:00 7.4 C 5.65 g/m*3 5.02 C 12.9 km/h
Sensor: Nr:Datum:Temp:Abs-Feuchte:Windchill:Wind:
Aussen-T/F 176 15-12-2011 14:35:00 7.4 C 5.65 g/m*3 4.78 C 14.5 km/h
177 15-12-2011 14:40:00 7.4 C 5.57 g/m*3 5.28 C 11.3 km/h
178 15-12-2011 14:45:00 7.4 C 5.57 g/m*3 5.02 C 12.9 km/h
179 15-12-2011 14:50:00 7.4 C 5.73 g/m*3 4.56 C 16.1 km/h
180 15-12-2011 14:55:00 7.3 C 5.61 g/m*3 4.44 C 16.1 km/h
181 15-12-2011 15:00:00 7.3 C 5.69 g/m*3 4.44 C 16.1 km/h
182 15-12-2011 15:05:00 7.3 C 5.69 g/m*3 5.16 C 11.3 km/h
183 15-12-2011 15:10:00 7.3 C 5.77 g/m*3 4.9 C 12.9 km/h
184 15-12-2011 15:15:00 7.3 C 5.77 g/m*3 5.47 C 9.7 km/h
185 15-12-2011 15:20:00 7.2 C 5.73 g/m*3 4.11 C 17.7 km/h
186 15-12-2011 15:25:00 7.2 C 5.73 g/m*3 4.53 C 14.5 km/h
187 15-12-2011 15:30:00 7.1 C 5.77 g/m*3 4.92 C 11.3 km/h
188 15-12-2011 15:35:00 6.9 C 5.77 g/m*3 4.16 C 14.5 km/h
189 15-12-2011 15:40:00 6.8 C 5.74 g/m*3 3.07 C 22.5 km/h
190 15-12-2011 15:45:00 6.7 C 5.85 g/m*3 4.17 C 12.9 km/h
191 15-12-2011 15:50:00 6.6 C 5.81 g/m*3 3.79 C 14.5 km/h
192 15-12-2011 15:55:00 6.5 C 5.77 g/m*3 3.67 C 14.5 km/h
193 15-12-2011 16:00:00 6.4 C 5.81 g/m*3 3.8 C 12.9 km/h
194 15-12-2011 16:05:00 6.5 C 5.77 g/m*3 3.92 C 12.9 km/h
195 15-12-2011 16:10:00 6.5 C 5.77 g/m*3 4.2 C 11.3 km/h
196 15-12-2011 16:15:00 6.5 C 5.7 g/m*3 3.44 C 16.1 km/h
197 15-12-2011 16:20:00 6.5 C 5.7 g/m*3 4.2 C 11.3 km/h
198 15-12-2011 16:25:00 6.5 C 5.77 g/m*3 4.2 C 11.3 km/h
199 15-12-2011 16:30:00 6.5 C 5.77 g/m*3 4.2 C 11.3 km/h
200 15-12-2011 16:35:00 6.5 C 5.77 g/m*3 4.51 C 9.7 km/h
Sensor: Nr:Datum:Temp:Abs-Feuchte:Windchill:Wind:
Aussen-T/F 201 15-12-2011 16:40:00 6.4 C 5.74 g/m*3 4.75 C 8.1 km/h
202 15-12-2011 16:45:00 6.4 C 5.74 g/m*3 4.75 C 8.1 km/h
203 15-12-2011 16:50:00 6.4 C 5.74 g/m*3 4.39 C 9.7 km/h
204 15-12-2011 16:55:00 6.5 C 5.77 g/m*3 3.23 C 17.7 km/h
205 15-12-2011 17:00:00 6.6 C 5.81 g/m*3 4.32 C 11.3 km/h
206 15-12-2011 17:05:00 6.5 C 5.77 g/m*3 4.2 C 11.3 km/h
207 15-12-2011 17:10:00 6.6 C 5.81 g/m*3 4.63 C 9.7 km/h
208 15-12-2011 17:15:00 6.6 C 5.81 g/m*3 3.79 C 14.5 km/h
209 15-12-2011 17:20:00 6.6 C 5.74 g/m*3 4.04 C 12.9 km/h
210 15-12-2011 17:25:00 6.6 C 5.74 g/m*3 4.32 C 11.3 km/h
211 15-12-2011 17:30:00 6.6 C 5.74 g/m*3 4.32 C 11.3 km/h
212 15-12-2011 17:35:00 6.5 C 5.7 g/m*3 4.51 C 9.7 km/h
213 15-12-2011 17:40:00 6.5 C 5.7 g/m*3 4.2 C 11.3 km/h
214 15-12-2011 17:45:00 6.5 C 5.7 g/m*3 3.04 C 19.3 km/h
215 15-12-2011 17:50:00 6.6 C 5.66 g/m*3 3.17 C 19.3 km/h
216 15-12-2011 17:55:00 6.6 C 5.74 g/m*3 3.79 C 14.5 km/h
217 15-12-2011 18:00:00 6.5 C 5.62 g/m*3 3.92 C 12.9 km/h
218 15-12-2011 18:05:00 6.5 C 5.62 g/m*3 4.2 C 11.3 km/h
219 15-12-2011 18:10:00 6.5 C 5.62 g/m*3 3.92 C 12.9 km/h
220 15-12-2011 18:15:00 6.6 C 5.66 g/m*3 3.57 C 16.1 km/h
221 15-12-2011 18:20:00 6.6 C 5.74 g/m*3 3.79 C 14.5 km/h
222 15-12-2011 18:25:00 6.6 C 5.66 g/m*3 4.04 C 12.9 km/h
223 15-12-2011 18:30:00 6.6 C 5.74 g/m*3 3.79 C 14.5 km/h
224 15-12-2011 18:35:00 6.6 C 5.74 g/m*3 4.04 C 12.9 km/h
225 15-12-2011 18:40:00 6.6 C 5.74 g/m*3 4.32 C 11.3 km/h
Sensor: Nr:Datum:Temp:Abs-Feuchte:Windchill:Wind:
Aussen-T/F 226 15-12-2011 18:45:00 6.5 C 5.77 g/m*3 3.67 C 14.5 km/h
227 15-12-2011 18:50:00 6.5 C 5.77 g/m*3 3.04 C 19.3 km/h
228 15-12-2011 18:55:00 6.5 C 5.85 g/m*3 3.67 C 14.5 km/h
229 15-12-2011 19:00:00 6.4 C 5.81 g/m*3 4.08 C 11.3 km/h
230 15-12-2011 19:05:00 6.3 C 5.85 g/m*3 3.43 C 14.5 km/h
231 15-12-2011 19:10:00 6.3 C 5.85 g/m*3 3.68 C 12.9 km/h
232 15-12-2011 19:15:00 6.3 C 5.85 g/m*3 2.98 C 17.7 km/h
233 15-12-2011 19:20:00 6.4 C 5.89 g/m*3 3.8 C 12.9 km/h
234 15-12-2011 19:25:00 6.4 C 5.89 g/m*3 4.08 C 11.3 km/h
235 15-12-2011 19:30:00 6.4 C 5.89 g/m*3 5.21 C 6.4 km/h
236 15-12-2011 19:35:00 6.4 C 5.89 g/m*3 3.32 C 16.1 km/h
237 15-12-2011 19:40:00 6.4 C 5.89 g/m*3 3.11 C 17.7 km/h
238 15-12-2011 19:45:00 6.5 C 5.92 g/m*3 3.67 C 14.5 km/h
239 15-12-2011 19:50:00 6.4 C 5.89 g/m*3 5.21 C 6.4 km/h
240 15-12-2011 19:55:00 6.5 C 5.92 g/m*3 3.44 C 16.1 km/h
241 15-12-2011 20:00:00 6.5 C 5.92 g/m*3 3.23 C 17.7 km/h
242 15-12-2011 20:05:00 6.5 C 5.92 g/m*3 3.67 C 14.5 km/h
243 15-12-2011 20:10:00 6.5 C 5.85 g/m*3 3.67 C 14.5 km/h
244 15-12-2011 20:15:00 6.5 C 5.85 g/m*3 4.2 C 11.3 km/h
245 15-12-2011 20:20:00 6.6 C 5.89 g/m*3 3.17 C 19.3 km/h
246 15-12-2011 20:25:00 6.6 C 5.89 g/m*3 4.04 C 12.9 km/h
247 15-12-2011 20:30:00 6.5 C 5.85 g/m*3 3.92 C 12.9 km/h
248 15-12-2011 20:35:00 6.5 C 5.85 g/m*3 3.67 C 14.5 km/h
249 15-12-2011 20:40:00 6.4 C 5.81 g/m*3 3.55 C 14.5 km/h
250 15-12-2011 20:45:00 6.4 C 5.81 g/m*3 2.91 C 19.3 km/h
Sensor: Nr:Datum:Temp:Abs-Feuchte:Windchill:Wind:
Aussen-T/F 251 15-12-2011 20:50:00 6.4 C 5.89 g/m*3 3.8 C 12.9 km/h
252 15-12-2011 20:55:00 6.3 C 5.85 g/m*3 3.43 C 14.5 km/h
253 15-12-2011 21:00:00 6.3 C 5.85 g/m*3 3.68 C 12.9 km/h
254 15-12-2011 21:05:00 6.3 C 5.85 g/m*3 2.98 C 17.7 km/h
255 15-12-2011 21:10:00 6.2 C 5.81 g/m*3 4.15 C 9.7 km/h
256 15-12-2011 21:15:00 6.2 C 5.81 g/m*3 3.3 C 14.5 km/h
257 15-12-2011 21:20:00 6.2 C 5.81 g/m*3 2.48 C 20.9 km/h
258 15-12-2011 21:25:00 6.2 C 5.74 g/m*3 3.56 C 12.9 km/h
259 15-12-2011 21:30:00 6.3 C 5.77 g/m*3 3.68 C 12.9 km/h
260 15-12-2011 21:35:00 6.3 C 5.77 g/m*3 2.27 C 24.1 km/h
261 15-12-2011 21:40:00 6.3 C 5.77 g/m*3 3.96 C 11.3 km/h
262 15-12-2011 21:45:00 6.3 C 5.77 g/m*3 3.96 C 11.3 km/h
263 15-12-2011 21:50:00 6.2 C 5.81 g/m*3 3.84 C 11.3 km/h
264 15-12-2011 21:55:00 6.2 C 5.81 g/m*3 4.52 C 8.1 km/h
265 15-12-2011 22:00:00 6.2 C 5.81 g/m*3 2.86 C 17.7 km/h
266 15-12-2011 22:05:00 6.2 C 5.74 g/m*3 3.3 C 14.5 km/h
267 15-12-2011 22:10:00 6.2 C 5.74 g/m*3 3.3 C 14.5 km/h
268 15-12-2011 22:15:00 6.3 C 5.77 g/m*3 3.2 C 16.1 km/h
269 15-12-2011 22:20:00 6.3 C 5.77 g/m*3 4.64 C 8.1 km/h
270 15-12-2011 22:25:00 6.3 C 5.77 g/m*3 3.96 C 11.3 km/h
271 15-12-2011 22:30:00 6.3 C 5.77 g/m*3 3.96 C 11.3 km/h
272 15-12-2011 22:35:00 6.3 C 5.77 g/m*3 3.68 C 12.9 km/h
273 15-12-2011 22:40:00 6.3 C 5.77 g/m*3 3.96 C 11.3 km/h
274 15-12-2011 22:45:00 6.3 C 5.77 g/m*3 4.64 C 8.1 km/h
275 15-12-2011 22:50:00 6.3 C 5.77 g/m*3 4.27 C 9.7 km/h
Sensor: Nr:Datum:Temp:Abs-Feuchte:Windchill:Wind:
Aussen-T/F 276 15-12-2011 22:55:00 6.3 C 5.77 g/m*3 3.96 C 11.3 km/h
277 15-12-2011 23:00:00 6.4 C 5.74 g/m*3 4.08 C 11.3 km/h
278 15-12-2011 23:05:00 6.4 C 5.81 g/m*3 4.39 C 9.7 km/h
279 15-12-2011 23:10:00 6.4 C 5.81 g/m*3 4.39 C 9.7 km/h
280 15-12-2011 23:15:00 6.4 C 5.74 g/m*3 4.75 C 8.1 km/h
281 15-12-2011 23:20:00 6.4 C 5.81 g/m*3 4.39 C 9.7 km/h
282 15-12-2011 23:25:00 6.4 C 5.81 g/m*3 4.75 C 8.1 km/h
283 15-12-2011 23:30:00 6.3 C 5.77 g/m*3 4.27 C 9.7 km/h
284 15-12-2011 23:35:00 6.3 C 5.77 g/m*3 4.64 C 8.1 km/h
285 15-12-2011 23:40:00 6.4 C 5.81 g/m*3 4.75 C 8.1 km/h
286 15-12-2011 23:45:00 6.4 C 5.81 g/m*3 4.75 C 8.1 km/h
287 15-12-2011 23:50:00 6.4 C 5.81 g/m*3 6.4 C 4.8 km/h
288 15-12-2011 23:55:00 6.4 C 5.81 g/m*3 4.75 C 8.1 km/h

Legende:
   Min
   Max


Maximal/Minimal-Werte vom 15.12.2011 - 15.12.2011

Sensor Min Max Avg
Temp
(Aussen-T/F)
4 °C
15-12-2011  04:45:00
7.4 °C
15-12-2011  12:40:00
6.14 °C
Abs-Feuchte
(Aussen-T/F)
5.29 g/m*3
15-12-2011  00:30:00
5.93 g/m*3
15-12-2011  13:55:00
5.67 g/m*3
Windchill
(Aussen-T/F)
1.49 C
15-12-2011  06:25:00
7.2 C
15-12-2011  12:30:00
4.17 C

Die Daten stammen von einer Davis Vantage Pro 2 Wetter-Station und werden unter Linux mit der Software wview2wettercgi und aufbereitet. Alle Angaben erfolgen ohne Gewähr für ihre Vollständigkeit oder Richtigkeit.
Kontakt: Rainer Krienke krienke@uni-koblenz.de . Meine Webseiten an der Uni Koblenz oder privat.
Version: $Revision: 0.78 $